sensor_id;sensor_type;location;lat;lon;timestamp;pressure;altitude;pressure_sealevel;temperature;humidity
70250;BME280;57644;48.416;-123.374;2022-12-07T00:00:44;101971.02;;;-2.43;87.90
70250;BME280;57644;48.416;-123.374;2022-12-07T00:03:14;101973.45;;;-2.56;88.59
70250;BME280;57644;48.416;-123.374;2022-12-07T00:05:44;101970.78;;;-2.83;88.63
70250;BME280;57644;48.416;-123.374;2022-12-07T00:08:15;101972.77;;;-2.86;89.49
70250;BME280;57644;48.416;-123.374;2022-12-07T00:10:45;101972.06;;;-2.53;88.81
70250;BME280;57644;48.416;-123.374;2022-12-07T00:13:16;101975.46;;;-2.45;88.39
70250;BME280;57644;48.416;-123.374;2022-12-07T00:15:46;101978.42;;;-2.28;87.87
70250;BME280;57644;48.416;-123.374;2022-12-07T00:18:17;101978.59;;;-2.33;86.73
70250;BME280;57644;48.416;-123.374;2022-12-07T00:20:47;101980.40;;;-2.31;86.10
70250;BME280;57644;48.416;-123.374;2022-12-07T00:23:18;101977.25;;;-2.40;85.80
70250;BME280;57644;48.416;-123.374;2022-12-07T00:25:48;101977.36;;;-2.33;86.97
70250;BME280;57644;48.416;-123.374;2022-12-07T00:28:19;101981.70;;;-2.34;87.18
70250;BME280;57644;48.416;-123.374;2022-12-07T00:30:49;101982.40;;;-2.34;87.99
70250;BME280;57644;48.416;-123.374;2022-12-07T00:33:25;101986.32;;;-2.25;87.10
70250;BME280;57644;48.416;-123.374;2022-12-07T00:35:55;101987.52;;;-2.29;87.03
70250;BME280;57644;48.416;-123.374;2022-12-07T00:38:21;101989.82;;;-2.15;85.90
70250;BME280;57644;48.416;-123.374;2022-12-07T00:40:56;101992.96;;;-2.08;85.69
70250;BME280;57644;48.416;-123.374;2022-12-07T00:43:22;101995.44;;;-1.99;85.83
70250;BME280;57644;48.416;-123.374;2022-12-07T00:45:53;101999.27;;;-1.86;85.80
70250;BME280;57644;48.416;-123.374;2022-12-07T00:48:24;102006.67;;;-1.73;85.90
70250;BME280;57644;48.416;-123.374;2022-12-07T00:50:54;102009.16;;;-1.70;87.23
70250;BME280;57644;48.416;-123.374;2022-12-07T00:53:26;102014.18;;;-1.63;87.65
70250;BME280;57644;48.416;-123.374;2022-12-07T00:55:55;102015.52;;;-1.62;89.13
70250;BME280;57644;48.416;-123.374;2022-12-07T00:58:25;102014.81;;;-1.61;90.01
70250;BME280;57644;48.416;-123.374;2022-12-07T01:01:00;102018.22;;;-1.61;90.54
70250;BME280;57644;48.416;-123.374;2022-12-07T01:03:26;102023.19;;;-1.56;90.70
70250;BME280;57644;48.416;-123.374;2022-12-07T01:05:57;102022.17;;;-1.52;91.03
70250;BME280;57644;48.416;-123.374;2022-12-07T01:08:28;102019.95;;;-1.50;91.00
70250;BME280;57644;48.416;-123.374;2022-12-07T01:11:00;102014.81;;;-1.45;90.52
70250;BME280;57644;48.416;-123.374;2022-12-07T01:13:28;102015.48;;;-1.44;90.86
70250;BME280;57644;48.416;-123.374;2022-12-07T01:16:00;102015.73;;;-1.43;90.64
70250;BME280;57644;48.416;-123.374;2022-12-07T01:18:29;102019.60;;;-1.53;91.29
70250;BME280;57644;48.416;-123.374;2022-12-07T01:21:00;102016.59;;;-1.60;91.73
70250;BME280;57644;48.416;-123.374;2022-12-07T01:23:30;102014.54;;;-1.74;92.53
70250;BME280;57644;48.416;-123.374;2022-12-07T01:26:02;102018.15;;;-1.64;92.08
70250;BME280;57644;48.416;-123.374;2022-12-07T01:28:31;102019.69;;;-1.64;92.20
70250;BME280;57644;48.416;-123.374;2022-12-07T01:31:02;102019.79;;;-1.58;91.85
70250;BME280;57644;48.416;-123.374;2022-12-07T01:33:33;102022.01;;;-1.60;92.07
70250;BME280;57644;48.416;-123.374;2022-12-07T01:36:04;102022.22;;;-1.62;92.22
70250;BME280;57644;48.416;-123.374;2022-12-07T01:38:32;102021.41;;;-1.76;93.00
70250;BME280;57644;48.416;-123.374;2022-12-07T01:41:03;102021.55;;;-1.73;92.71
70250;BME280;57644;48.416;-123.374;2022-12-07T01:43:33;102024.08;;;-1.74;92.73
70250;BME280;57644;48.416;-123.374;2022-12-07T01:46:03;102022.88;;;-1.73;92.75
70250;BME280;57644;48.416;-123.374;2022-12-07T01:48:36;102018.83;;;-1.92;93.37
70250;BME280;57644;48.416;-123.374;2022-12-07T01:51:06;102018.75;;;-1.85;93.08
70250;BME280;57644;48.416;-123.374;2022-12-07T01:53:37;102020.87;;;-1.90;93.46
70250;BME280;57644;48.416;-123.374;2022-12-07T01:56:06;102021.32;;;-1.80;93.12
70250;BME280;57644;48.416;-123.374;2022-12-07T01:58:36;102020.24;;;-1.83;93.45
70250;BME280;57644;48.416;-123.374;2022-12-07T02:01:06;102019.37;;;-1.83;93.48
70250;BME280;57644;48.416;-123.374;2022-12-07T02:03:39;102023.94;;;-1.82;92.77
70250;BME280;57644;48.416;-123.374;2022-12-07T02:06:09;102020.69;;;-1.88;92.95
70250;BME280;57644;48.416;-123.374;2022-12-07T02:08:38;102025.06;;;-1.95;93.48
70250;BME280;57644;48.416;-123.374;2022-12-07T02:11:08;102021.24;;;-1.89;92.97
70250;BME280;57644;48.416;-123.374;2022-12-07T02:13:41;102017.47;;;-1.95;93.14
70250;BME280;57644;48.416;-123.374;2022-12-07T02:16:19;102022.25;;;-1.90;92.80
70250;BME280;57644;48.416;-123.374;2022-12-07T02:18:48;102020.92;;;-1.86;92.62
70250;BME280;57644;48.416;-123.374;2022-12-07T02:21:13;102023.12;;;-1.99;92.92
70250;BME280;57644;48.416;-123.374;2022-12-07T02:26:25;102029.51;;;-2.00;93.33
70250;BME280;57644;48.416;-123.374;2022-12-07T02:31:14;102034.08;;;-2.02;93.87
70250;BME280;57644;48.416;-123.374;2022-12-07T02:33:43;102038.29;;;-2.02;93.53
70250;BME280;57644;48.416;-123.374;2022-12-07T02:36:14;102037.97;;;-1.97;93.38
70250;BME280;57644;48.416;-123.374;2022-12-07T02:38:45;102042.19;;;-2.00;93.93
70250;BME280;57644;48.416;-123.374;2022-12-07T02:41:15;102044.47;;;-1.92;93.66
70250;BME280;57644;48.416;-123.374;2022-12-07T02:43:45;102046.55;;;-2.01;93.73
70250;BME280;57644;48.416;-123.374;2022-12-07T02:46:17;102044.74;;;-1.98;93.51
70250;BME280;57644;48.416;-123.374;2022-12-07T02:48:43;102042.73;;;-2.01;93.94
70250;BME280;57644;48.416;-123.374;2022-12-07T02:51:14;102042.13;;;-1.91;93.27
70250;BME280;57644;48.416;-123.374;2022-12-07T02:53:44;102043.75;;;-1.91;93.09
70250;BME280;57644;48.416;-123.374;2022-12-07T02:56:21;102048.61;;;-1.89;93.08
70250;BME280;57644;48.416;-123.374;2022-12-07T02:58:54;102049.56;;;-1.92;93.05
70250;BME280;57644;48.416;-123.374;2022-12-07T03:01:21;102050.58;;;-1.86;92.70
70250;BME280;57644;48.416;-123.374;2022-12-07T03:03:51;102047.17;;;-1.81;92.45
70250;BME280;57644;48.416;-123.374;2022-12-07T03:06:22;102047.49;;;-1.92;92.69
70250;BME280;57644;48.416;-123.374;2022-12-07T03:08:53;102046.85;;;-1.91;93.04
70250;BME280;57644;48.416;-123.374;2022-12-07T03:11:21;102048.45;;;-1.84;92.79
70250;BME280;57644;48.416;-123.374;2022-12-07T03:13:50;102045.77;;;-1.77;92.43
70250;BME280;57644;48.416;-123.374;2022-12-07T03:16:21;102046.31;;;-1.68;91.86
70250;BME280;57644;48.416;-123.374;2022-12-07T03:18:52;102046.94;;;-1.68;91.52
70250;BME280;57644;48.416;-123.374;2022-12-07T03:21:22;102047.18;;;-1.68;91.72
70250;BME280;57644;48.416;-123.374;2022-12-07T03:23:52;102052.04;;;-1.84;92.35
70250;BME280;57644;48.416;-123.374;2022-12-07T03:26:21;102053.68;;;-1.79;92.12
70250;BME280;57644;48.416;-123.374;2022-12-07T03:28:52;102050.95;;;-1.77;91.53
70250;BME280;57644;48.416;-123.374;2022-12-07T03:31:23;102053.42;;;-1.82;91.68
70250;BME280;57644;48.416;-123.374;2022-12-07T03:33:56;102055.44;;;-1.83;92.07
70250;BME280;57644;48.416;-123.374;2022-12-07T03:36:25;102057.07;;;-1.83;91.79
70250;BME280;57644;48.416;-123.374;2022-12-07T03:38:56;102056.92;;;-1.79;91.95
70250;BME280;57644;48.416;-123.374;2022-12-07T03:41:24;102060.07;;;-1.84;91.91
70250;BME280;57644;48.416;-123.374;2022-12-07T03:43:53;102063.77;;;-2.03;92.19
70250;BME280;57644;48.416;-123.374;2022-12-07T03:46:29;102069.05;;;-1.99;92.64
70250;BME280;57644;48.416;-123.374;2022-12-07T03:48:59;102071.06;;;-1.95;92.47
70250;BME280;57644;48.416;-123.374;2022-12-07T03:51:30;102074.10;;;-1.97;92.09
70250;BME280;57644;48.416;-123.374;2022-12-07T03:53:59;102076.19;;;-2.00;92.49
70250;BME280;57644;48.416;-123.374;2022-12-07T03:56:26;102076.74;;;-1.91;92.15
70250;BME280;57644;48.416;-123.374;2022-12-07T03:58:55;102076.22;;;-2.01;91.97
70250;BME280;57644;48.416;-123.374;2022-12-07T04:01:26;102077.91;;;-1.98;91.65
70250;BME280;57644;48.416;-123.374;2022-12-07T04:03:56;102073.69;;;-2.02;91.82
70250;BME280;57644;48.416;-123.374;2022-12-07T04:06:27;102071.62;;;-1.99;91.92
70250;BME280;57644;48.416;-123.374;2022-12-07T04:08:57;102071.17;;;-1.93;91.68
70250;BME280;57644;48.416;-123.374;2022-12-07T04:11:27;102075.17;;;-1.94;91.43
70250;BME280;57644;48.416;-123.374;2022-12-07T04:13:58;102076.74;;;-1.97;91.46
70250;BME280;57644;48.416;-123.374;2022-12-07T04:16:29;102079.64;;;-1.99;91.40
70250;BME280;57644;48.416;-123.374;2022-12-07T04:18:59;102081.17;;;-1.97;91.60
70250;BME280;57644;48.416;-123.374;2022-12-07T04:21:29;102081.65;;;-2.10;91.37
70250;BME280;57644;48.416;-123.374;2022-12-07T04:24:00;102083.86;;;-2.04;91.70
70250;BME280;57644;48.416;-123.374;2022-12-07T04:26:30;102091.01;;;-1.96;91.50
70250;BME280;57644;48.416;-123.374;2022-12-07T04:29:00;102097.16;;;-1.98;91.42
70250;BME280;57644;48.416;-123.374;2022-12-07T04:31:31;102099.64;;;-1.96;91.26
70250;BME280;57644;48.416;-123.374;2022-12-07T04:34:02;102102.17;;;-1.98;91.19
70250;BME280;57644;48.416;-123.374;2022-12-07T04:36:33;102100.04;;;-2.07;91.62
70250;BME280;57644;48.416;-123.374;2022-12-07T04:39:04;102102.08;;;-2.02;91.61
70250;BME280;57644;48.416;-123.374;2022-12-07T04:41:34;102102.07;;;-2.05;91.32
70250;BME280;57644;48.416;-123.374;2022-12-07T04:44:04;102104.34;;;-2.06;91.95
70250;BME280;57644;48.416;-123.374;2022-12-07T04:46:34;102108.72;;;-2.12;91.63
70250;BME280;57644;48.416;-123.374;2022-12-07T04:49:05;102112.67;;;-2.10;91.49
70250;BME280;57644;48.416;-123.374;2022-12-07T04:51:35;102114.43;;;-2.07;91.01
70250;BME280;57644;48.416;-123.374;2022-12-07T04:54:06;102114.38;;;-2.00;90.78
70250;BME280;57644;48.416;-123.374;2022-12-07T04:56:36;102114.69;;;-2.11;90.75
70250;BME280;57644;48.416;-123.374;2022-12-07T04:59:06;102117.83;;;-2.12;91.14
70250;BME280;57644;48.416;-123.374;2022-12-07T05:01:36;102115.90;;;-2.07;90.81
70250;BME280;57644;48.416;-123.374;2022-12-07T05:04:07;102123.21;;;-2.07;90.87
70250;BME280;57644;48.416;-123.374;2022-12-07T05:06:37;102121.83;;;-2.09;90.95
70250;BME280;57644;48.416;-123.374;2022-12-07T05:09:07;102123.75;;;-2.13;91.21
70250;BME280;57644;48.416;-123.374;2022-12-07T05:11:38;102121.27;;;-2.15;91.21
70250;BME280;57644;48.416;-123.374;2022-12-07T05:14:12;102120.73;;;-2.10;91.05
70250;BME280;57644;48.416;-123.374;2022-12-07T05:16:39;102121.15;;;-2.10;91.45
70250;BME280;57644;48.416;-123.374;2022-12-07T05:19:09;102123.31;;;-2.05;91.25
70250;BME280;57644;48.416;-123.374;2022-12-07T05:21:40;102123.30;;;-2.09;91.24
70250;BME280;57644;48.416;-123.374;2022-12-07T05:24:12;102123.87;;;-2.11;90.94
70250;BME280;57644;48.416;-123.374;2022-12-07T05:26:41;102124.04;;;-2.27;91.58
70250;BME280;57644;48.416;-123.374;2022-12-07T05:29:13;102126.18;;;-2.32;92.06
70250;BME280;57644;48.416;-123.374;2022-12-07T05:31:42;102123.75;;;-2.20;91.63
70250;BME280;57644;48.416;-123.374;2022-12-07T05:34:12;102121.05;;;-2.28;91.81
70250;BME280;57644;48.416;-123.374;2022-12-07T05:36:43;102119.70;;;-2.21;91.79
70250;BME280;57644;48.416;-123.374;2022-12-07T05:39:13;102119.18;;;-2.17;91.57
70250;BME280;57644;48.416;-123.374;2022-12-07T05:41:43;102114.52;;;-2.16;91.59
70250;BME280;57644;48.416;-123.374;2022-12-07T05:44:15;102117.63;;;-2.21;91.62
70250;BME280;57644;48.416;-123.374;2022-12-07T05:46:45;102125.57;;;-2.40;92.60
70250;BME280;57644;48.416;-123.374;2022-12-07T05:49:15;102126.73;;;-2.43;92.99
70250;BME280;57644;48.416;-123.374;2022-12-07T05:51:46;102129.65;;;-2.31;92.37
70250;BME280;57644;48.416;-123.374;2022-12-07T05:54:17;102131.01;;;-2.26;91.74
70250;BME280;57644;48.416;-123.374;2022-12-07T05:56:47;102131.60;;;-2.23;91.92
70250;BME280;57644;48.416;-123.374;2022-12-07T05:59:18;102132.52;;;-2.14;91.63
70250;BME280;57644;48.416;-123.374;2022-12-07T06:01:49;102133.43;;;-2.09;91.54
70250;BME280;57644;48.416;-123.374;2022-12-07T06:04:19;102131.73;;;-2.10;91.22
70250;BME280;57644;48.416;-123.374;2022-12-07T06:06:49;102130.95;;;-2.09;91.24
70250;BME280;57644;48.416;-123.374;2022-12-07T06:09:20;102130.83;;;-2.13;91.16
70250;BME280;57644;48.416;-123.374;2022-12-07T06:11:50;102130.87;;;-2.18;91.37
70250;BME280;57644;48.416;-123.374;2022-12-07T06:14:20;102132.69;;;-2.18;91.23
70250;BME280;57644;48.416;-123.374;2022-12-07T06:16:50;102129.77;;;-2.20;91.41
70250;BME280;57644;48.416;-123.374;2022-12-07T06:19:21;102126.14;;;-2.19;91.46
70250;BME280;57644;48.416;-123.374;2022-12-07T06:21:51;102126.73;;;-2.16;91.51
70250;BME280;57644;48.416;-123.374;2022-12-07T06:24:21;102133.51;;;-2.16;91.80
70250;BME280;57644;48.416;-123.374;2022-12-07T06:26:52;102133.70;;;-2.11;91.18
70250;BME280;57644;48.416;-123.374;2022-12-07T06:29:22;102135.88;;;-2.09;91.27
70250;BME280;57644;48.416;-123.374;2022-12-07T06:31:52;102138.85;;;-2.06;90.34
70250;BME280;57644;48.416;-123.374;2022-12-07T06:34:24;102139.40;;;-2.02;90.05
70250;BME280;57644;48.416;-123.374;2022-12-07T06:36:54;102137.78;;;-2.09;90.32
70250;BME280;57644;48.416;-123.374;2022-12-07T06:39:25;102136.94;;;-2.01;90.17
70250;BME280;57644;48.416;-123.374;2022-12-07T06:41:55;102136.65;;;-2.03;90.35
70250;BME280;57644;48.416;-123.374;2022-12-07T06:44:25;102139.40;;;-2.14;90.46
70250;BME280;57644;48.416;-123.374;2022-12-07T06:46:55;102141.22;;;-2.28;90.76
70250;BME280;57644;48.416;-123.374;2022-12-07T06:49:25;102144.06;;;-2.28;90.62
70250;BME280;57644;48.416;-123.374;2022-12-07T06:51:56;102142.48;;;-2.28;90.55
70250;BME280;57644;48.416;-123.374;2022-12-07T06:54:26;102137.93;;;-2.41;91.11
70250;BME280;57644;48.416;-123.374;2022-12-07T06:56:57;102134.36;;;-2.35;91.14
70250;BME280;57644;48.416;-123.374;2022-12-07T06:59:28;102132.10;;;-2.44;91.04
70250;BME280;57644;48.416;-123.374;2022-12-07T07:01:58;102130.81;;;-2.32;90.75
70250;BME280;57644;48.416;-123.374;2022-12-07T07:04:28;102130.00;;;-2.38;91.17
70250;BME280;57644;48.416;-123.374;2022-12-07T07:06:59;102133.86;;;-2.41;90.89
70250;BME280;57644;48.416;-123.374;2022-12-07T07:09:29;102130.28;;;-2.28;90.70
70250;BME280;57644;48.416;-123.374;2022-12-07T07:12:00;102128.62;;;-2.28;90.34
70250;BME280;57644;48.416;-123.374;2022-12-07T07:14:31;102127.38;;;-2.26;90.58
70250;BME280;57644;48.416;-123.374;2022-12-07T07:17:01;102126.66;;;-2.33;90.35
70250;BME280;57644;48.416;-123.374;2022-12-07T07:19:31;102124.79;;;-2.30;90.61
70250;BME280;57644;48.416;-123.374;2022-12-07T07:22:02;102125.55;;;-2.35;90.57
70250;BME280;57644;48.416;-123.374;2022-12-07T07:24:32;102121.21;;;-2.30;90.74
70250;BME280;57644;48.416;-123.374;2022-12-07T07:27:03;102121.05;;;-2.31;90.62
70250;BME280;57644;48.416;-123.374;2022-12-07T07:29:33;102122.36;;;-2.28;90.61
70250;BME280;57644;48.416;-123.374;2022-12-07T07:32:04;102124.48;;;-2.29;90.91
70250;BME280;57644;48.416;-123.374;2022-12-07T07:34:34;102124.96;;;-2.22;90.40
70250;BME280;57644;48.416;-123.374;2022-12-07T07:37:05;102125.97;;;-2.26;90.28
70250;BME280;57644;48.416;-123.374;2022-12-07T07:39:35;102132.07;;;-2.26;90.14
70250;BME280;57644;48.416;-123.374;2022-12-07T07:42:06;102133.07;;;-2.24;89.86
70250;BME280;57644;48.416;-123.374;2022-12-07T07:44:36;102130.42;;;-2.35;90.21
70250;BME280;57644;48.416;-123.374;2022-12-07T07:47:07;102129.42;;;-2.38;90.72
70250;BME280;57644;48.416;-123.374;2022-12-07T07:49:37;102135.05;;;-2.31;90.38
70250;BME280;57644;48.416;-123.374;2022-12-07T07:52:07;102138.88;;;-2.31;90.58
70250;BME280;57644;48.416;-123.374;2022-12-07T07:54:38;102143.49;;;-2.37;90.31
70250;BME280;57644;48.416;-123.374;2022-12-07T07:57:09;102144.75;;;-2.36;90.71
70250;BME280;57644;48.416;-123.374;2022-12-07T07:59:38;102141.66;;;-2.39;90.35
70250;BME280;57644;48.416;-123.374;2022-12-07T08:02:14;102141.91;;;-2.37;90.11
70250;BME280;57644;48.416;-123.374;2022-12-07T08:04:39;102146.10;;;-2.51;90.50
70250;BME280;57644;48.416;-123.374;2022-12-07T08:07:09;102144.59;;;-2.56;90.92
70250;BME280;57644;48.416;-123.374;2022-12-07T08:09:40;102143.71;;;-2.50;90.71
70250;BME280;57644;48.416;-123.374;2022-12-07T08:12:10;102140.53;;;-2.48;90.37
70250;BME280;57644;48.416;-123.374;2022-12-07T08:14:42;102138.81;;;-2.63;90.89
70250;BME280;57644;48.416;-123.374;2022-12-07T08:17:12;102138.92;;;-2.55;90.97
70250;BME280;57644;48.416;-123.374;2022-12-07T08:19:42;102136.92;;;-2.56;91.34
70250;BME280;57644;48.416;-123.374;2022-12-07T08:22:13;102135.16;;;-2.56;91.79
70250;BME280;57644;48.416;-123.374;2022-12-07T08:24:43;102129.02;;;-2.54;91.12
70250;BME280;57644;48.416;-123.374;2022-12-07T08:27:14;102125.21;;;-2.56;90.94
70250;BME280;57644;48.416;-123.374;2022-12-07T08:29:44;102120.76;;;-2.58;91.39
70250;BME280;57644;48.416;-123.374;2022-12-07T08:32:15;102116.66;;;-2.55;91.24
70250;BME280;57644;48.416;-123.374;2022-12-07T08:34:45;102110.81;;;-2.56;91.19
70250;BME280;57644;48.416;-123.374;2022-12-07T08:37:16;102106.72;;;-2.55;91.32
70250;BME280;57644;48.416;-123.374;2022-12-07T08:39:46;102106.70;;;-2.46;90.89
70250;BME280;57644;48.416;-123.374;2022-12-07T08:42:17;102109.38;;;-2.56;91.29
70250;BME280;57644;48.416;-123.374;2022-12-07T08:44:49;102106.33;;;-2.73;91.91
70250;BME280;57644;48.416;-123.374;2022-12-07T08:47:18;102108.62;;;-2.69;92.17
70250;BME280;57644;48.416;-123.374;2022-12-07T08:49:50;102107.75;;;-2.72;91.90
70250;BME280;57644;48.416;-123.374;2022-12-07T08:52:19;102111.21;;;-2.86;92.23
70250;BME280;57644;48.416;-123.374;2022-12-07T08:54:49;102107.93;;;-3.00;92.73
70250;BME280;57644;48.416;-123.374;2022-12-07T08:57:20;102104.37;;;-2.86;92.32
70250;BME280;57644;48.416;-123.374;2022-12-07T08:59:50;102102.87;;;-2.78;92.10
70250;BME280;57644;48.416;-123.374;2022-12-07T09:02:21;102105.08;;;-2.71;91.99
70250;BME280;57644;48.416;-123.374;2022-12-07T09:04:51;102107.12;;;-2.71;92.00
70250;BME280;57644;48.416;-123.374;2022-12-07T09:07:22;102106.59;;;-2.74;91.92
70250;BME280;57644;48.416;-123.374;2022-12-07T09:09:52;102108.03;;;-2.77;92.17
70250;BME280;57644;48.416;-123.374;2022-12-07T09:12:23;102105.06;;;-2.77;92.10
70250;BME280;57644;48.416;-123.374;2022-12-07T09:14:53;102104.48;;;-2.74;92.06
70250;BME280;57644;48.416;-123.374;2022-12-07T09:17:24;102106.47;;;-2.70;91.88
70250;BME280;57644;48.416;-123.374;2022-12-07T09:19:54;102105.95;;;-2.76;91.93
70250;BME280;57644;48.416;-123.374;2022-12-07T09:22:25;102106.21;;;-2.79;91.93
70250;BME280;57644;48.416;-123.374;2022-12-07T09:24:55;102106.13;;;-2.70;91.41
70250;BME280;57644;48.416;-123.374;2022-12-07T09:27:27;102105.34;;;-2.72;91.64
70250;BME280;57644;48.416;-123.374;2022-12-07T09:29:56;102099.54;;;-2.79;92.25
70250;BME280;57644;48.416;-123.374;2022-12-07T09:32:27;102098.95;;;-2.81;92.32
70250;BME280;57644;48.416;-123.374;2022-12-07T09:34:58;102105.54;;;-2.82;92.46
70250;BME280;57644;48.416;-123.374;2022-12-07T09:37:28;102103.62;;;-2.86;92.24
70250;BME280;57644;48.416;-123.374;2022-12-07T09:39:59;102108.19;;;-2.88;92.62
70250;BME280;57644;48.416;-123.374;2022-12-07T09:42:32;102106.60;;;-2.80;92.17
70250;BME280;57644;48.416;-123.374;2022-12-07T09:45:01;102108.07;;;-2.76;92.21
70250;BME280;57644;48.416;-123.374;2022-12-07T09:47:32;102108.75;;;-2.73;91.99
70250;BME280;57644;48.416;-123.374;2022-12-07T09:50:06;102106.30;;;-2.73;91.78
70250;BME280;57644;48.416;-123.374;2022-12-07T09:52:32;102103.10;;;-2.74;92.03
70250;BME280;57644;48.416;-123.374;2022-12-07T09:55:08;102103.31;;;-2.77;92.52
70250;BME280;57644;48.416;-123.374;2022-12-07T09:57:39;102102.33;;;-2.67;92.05
70250;BME280;57644;48.416;-123.374;2022-12-07T10:00:10;102105.51;;;-2.66;92.00
70250;BME280;57644;48.416;-123.374;2022-12-07T10:02:37;102106.53;;;-2.66;91.93
70250;BME280;57644;48.416;-123.374;2022-12-07T10:05:06;102107.64;;;-2.58;91.39
70250;BME280;57644;48.416;-123.374;2022-12-07T10:07:34;102105.39;;;-2.58;91.54
70250;BME280;57644;48.416;-123.374;2022-12-07T10:10:12;102104.96;;;-2.57;91.64
70250;BME280;57644;48.416;-123.374;2022-12-07T10:15:07;102105.45;;;-2.62;91.71
70250;BME280;57644;48.416;-123.374;2022-12-07T10:17:38;102107.11;;;-2.63;92.07
70250;BME280;57644;48.416;-123.374;2022-12-07T10:20:15;102108.09;;;-2.62;92.02
70250;BME280;57644;48.416;-123.374;2022-12-07T10:22:38;102106.24;;;-2.75;92.32
70250;BME280;57644;48.416;-123.374;2022-12-07T10:25:17;102106.19;;;-2.66;92.37
70250;BME280;57644;48.416;-123.374;2022-12-07T10:27:39;102104.70;;;-2.60;92.08
70250;BME280;57644;48.416;-123.374;2022-12-07T10:30:15;102104.65;;;-2.57;91.87
70250;BME280;57644;48.416;-123.374;2022-12-07T10:32:40;102106.66;;;-2.62;92.34
70250;BME280;57644;48.416;-123.374;2022-12-07T10:35:20;102109.28;;;-2.65;92.26
70250;BME280;57644;48.416;-123.374;2022-12-07T10:37:41;102109.31;;;-2.61;92.15
70250;BME280;57644;48.416;-123.374;2022-12-07T10:42:41;102112.51;;;-2.47;91.56
70250;BME280;57644;48.416;-123.374;2022-12-07T10:45:16;102114.97;;;-2.61;91.97
70250;BME280;57644;48.416;-123.374;2022-12-07T10:47:45;102112.92;;;-2.68;92.04
70250;BME280;57644;48.416;-123.374;2022-12-07T10:50:24;102112.22;;;-2.68;92.75
70250;BME280;57644;48.416;-123.374;2022-12-07T10:52:55;102109.56;;;-2.61;92.42
70250;BME280;57644;48.416;-123.374;2022-12-07T10:55:20;102109.31;;;-2.68;92.60
70250;BME280;57644;48.416;-123.374;2022-12-07T10:57:53;102110.27;;;-2.60;92.50
70250;BME280;57644;48.416;-123.374;2022-12-07T11:00:18;102108.97;;;-2.59;92.45
70250;BME280;57644;48.416;-123.374;2022-12-07T11:02:57;102103.46;;;-2.56;92.22
70250;BME280;57644;48.416;-123.374;2022-12-07T11:05:21;102104.16;;;-2.53;92.08
70250;BME280;57644;48.416;-123.374;2022-12-07T11:07:51;102101.68;;;-2.69;92.49
70250;BME280;57644;48.416;-123.374;2022-12-07T11:10:20;102102.72;;;-2.61;92.39
70250;BME280;57644;48.416;-123.374;2022-12-07T11:12:59;102100.48;;;-2.62;92.15
70250;BME280;57644;48.416;-123.374;2022-12-07T11:15:19;102095.90;;;-2.62;92.08
70250;BME280;57644;48.416;-123.374;2022-12-07T11:17:52;102092.14;;;-2.62;92.43
70250;BME280;57644;48.416;-123.374;2022-12-07T11:20:31;102091.01;;;-2.61;92.27
70250;BME280;57644;48.416;-123.374;2022-12-07T11:22:51;102089.61;;;-2.58;91.92
70250;BME280;57644;48.416;-123.374;2022-12-07T11:25:25;102089.18;;;-2.59;91.84
70250;BME280;57644;48.416;-123.374;2022-12-07T11:27:55;102090.59;;;-2.61;91.86
70250;BME280;57644;48.416;-123.374;2022-12-07T11:30:21;102092.84;;;-2.63;91.85
70250;BME280;57644;48.416;-123.374;2022-12-07T11:33:01;102093.98;;;-2.60;91.45
70250;BME280;57644;48.416;-123.374;2022-12-07T11:35:30;102092.92;;;-2.64;91.76
70250;BME280;57644;48.416;-123.374;2022-12-07T11:37:51;102097.13;;;-2.62;91.67
70250;BME280;57644;48.416;-123.374;2022-12-07T11:40:24;102092.71;;;-2.70;91.78
70250;BME280;57644;48.416;-123.374;2022-12-07T11:42:55;102090.53;;;-2.68;91.93
70250;BME280;57644;48.416;-123.374;2022-12-07T11:45:23;102090.32;;;-2.68;91.82
70250;BME280;57644;48.416;-123.374;2022-12-07T11:47:55;102088.68;;;-2.63;91.59
70250;BME280;57644;48.416;-123.374;2022-12-07T11:50:27;102089.52;;;-2.62;91.76
70250;BME280;57644;48.416;-123.374;2022-12-07T11:52:58;102091.50;;;-2.63;91.44
70250;BME280;57644;48.416;-123.374;2022-12-07T11:55:29;102087.65;;;-2.71;91.52
70250;BME280;57644;48.416;-123.374;2022-12-07T11:58:00;102087.84;;;-2.59;91.13
70250;BME280;57644;48.416;-123.374;2022-12-07T12:00:24;102087.11;;;-2.69;91.20
70250;BME280;57644;48.416;-123.374;2022-12-07T12:02:59;102084.29;;;-2.85;91.11
70250;BME280;57644;48.416;-123.374;2022-12-07T12:05:25;102086.14;;;-2.77;90.42
70250;BME280;57644;48.416;-123.374;2022-12-07T12:08:03;102082.12;;;-2.83;90.79
70250;BME280;57644;48.416;-123.374;2022-12-07T12:10:34;102079.49;;;-2.77;90.28
70250;BME280;57644;48.416;-123.374;2022-12-07T12:13:09;102081.87;;;-3.14;90.74
70250;BME280;57644;48.416;-123.374;2022-12-07T12:15:38;102083.34;;;-3.17;91.53
70250;BME280;57644;48.416;-123.374;2022-12-07T12:18:11;102080.89;;;-3.61;93.52
70250;BME280;57644;48.416;-123.374;2022-12-07T12:20:31;102076.05;;;-3.21;92.95
70250;BME280;57644;48.416;-123.374;2022-12-07T12:23:05;102074.24;;;-3.16;92.55
70250;BME280;57644;48.416;-123.374;2022-12-07T12:25:31;102070.90;;;-3.51;93.38
70250;BME280;57644;48.416;-123.374;2022-12-07T12:28:00;102069.02;;;-3.29;93.41
70250;BME280;57644;48.416;-123.374;2022-12-07T12:30:33;102066.21;;;-3.27;92.92
70250;BME280;57644;48.416;-123.374;2022-12-07T12:33:12;102069.07;;;-3.47;93.53
70250;BME280;57644;48.416;-123.374;2022-12-07T12:35:34;102067.67;;;-3.14;92.66
70250;BME280;57644;48.416;-123.374;2022-12-07T12:40:39;102072.92;;;-2.93;91.59
70250;BME280;57644;48.416;-123.374;2022-12-07T12:43:14;102072.70;;;-2.77;91.36
70250;BME280;57644;48.416;-123.374;2022-12-07T12:45:33;102070.90;;;-2.66;91.05
70250;BME280;57644;48.416;-123.374;2022-12-07T12:50:36;102069.88;;;-2.40;90.21